KCKN/CKN METAR and TAF weather

Enter ICAO airport designator
Station Type Date Time Source
KCKN METAR 2019/08/24 08:56 UTC NOAA

KCKN 240856Z AUTO 16010KT 10SM CLR 16/14 A3010 RMK AO2


Station Type Date Time Source
KCKN Decoded METAR 2019/08/24 08:56 UTC NOAA

Station name not available
Aug 24, 2019 - 04:56 AM EDT / 2019.08.24 0856 UTC
Wind: from the SSE (160 degrees) at 12 MPH (10 KT):0
Visibility: 10 mile(s):0
Sky conditions: clear
Temperature: 60 F (16 C)
Dew Point: 57 F (14 C)
Relative Humidity: 87%
Pressure (altimeter): 30.1 in. Hg (1019 hPa)
ob: KCKN 240856Z AUTO 16010KT 10SM CLR 16/14 A3010 RMK AO2
cycle: 9

Station Type Date Time Source
KCKN TAF UTC NOAA

Error!

Example: see airport list